sensor_id;sensor_type;location;lat;lon;timestamp;P1;durP1;ratioP1;P2;durP2;ratioP2
15142;SDS011;7672;50.834;6.286;2022-07-29T00:01:02;5.90;;;2.22;;
15142;SDS011;7672;50.834;6.286;2022-07-29T00:03:29;3.80;;;2.13;;
15142;SDS011;7672;50.834;6.286;2022-07-29T00:05:56;9.77;;;2.30;;
15142;SDS011;7672;50.834;6.286;2022-07-29T00:08:25;6.13;;;2.57;;
15142;SDS011;7672;50.834;6.286;2022-07-29T00:10:52;6.50;;;2.60;;
15142;SDS011;7672;50.834;6.286;2022-07-29T00:13:19;3.37;;;2.13;;
15142;SDS011;7672;50.834;6.286;2022-07-29T00:15:58;4.47;;;2.10;;
15142;SDS011;7672;50.834;6.286;2022-07-29T00:18:30;7.23;;;2.40;;
15142;SDS011;7672;50.834;6.286;2022-07-29T00:20:57;7.43;;;2.60;;
15142;SDS011;7672;50.834;6.286;2022-07-29T00:23:24;5.33;;;2.23;;
15142;SDS011;7672;50.834;6.286;2022-07-29T00:25:51;8.13;;;2.57;;
15142;SDS011;7672;50.834;6.286;2022-07-29T00:28:17;7.23;;;2.83;;
15142;SDS011;7672;50.834;6.286;2022-07-29T00:30:44;5.60;;;2.00;;
15142;SDS011;7672;50.834;6.286;2022-07-29T00:33:11;7.80;;;2.10;;
15142;SDS011;7672;50.834;6.286;2022-07-29T00:35:38;5.70;;;2.13;;
15142;SDS011;7672;50.834;6.286;2022-07-29T00:38:13;6.57;;;2.47;;
15142;SDS011;7672;50.834;6.286;2022-07-29T00:40:42;6.60;;;2.33;;
15142;SDS011;7672;50.834;6.286;2022-07-29T00:43:11;5.83;;;2.20;;
15142;SDS011;7672;50.834;6.286;2022-07-29T00:45:40;6.47;;;2.10;;
15142;SDS011;7672;50.834;6.286;2022-07-29T00:48:07;6.60;;;2.47;;
15142;SDS011;7672;50.834;6.286;2022-07-29T00:50:35;7.80;;;2.27;;
15142;SDS011;7672;50.834;6.286;2022-07-29T00:53:04;9.97;;;2.73;;
15142;SDS011;7672;50.834;6.286;2022-07-29T00:55:32;8.80;;;2.70;;
15142;SDS011;7672;50.834;6.286;2022-07-29T00:58:00;7.27;;;2.43;;
15142;SDS011;7672;50.834;6.286;2022-07-29T01:00:28;7.50;;;2.30;;
15142;SDS011;7672;50.834;6.286;2022-07-29T01:02:55;10.43;;;2.70;;
15142;SDS011;7672;50.834;6.286;2022-07-29T01:05:23;9.97;;;2.77;;
15142;SDS011;7672;50.834;6.286;2022-07-29T01:08:13;6.17;;;2.27;;
15142;SDS011;7672;50.834;6.286;2022-07-29T01:10:41;6.30;;;2.17;;
15142;SDS011;7672;50.834;6.286;2022-07-29T01:13:10;4.07;;;2.07;;
15142;SDS011;7672;50.834;6.286;2022-07-29T01:15:42;5.67;;;2.13;;
15142;SDS011;7672;50.834;6.286;2022-07-29T01:23:48;4.90;;;2.37;;
15142;SDS011;7672;50.834;6.286;2022-07-29T01:29:32;4.53;;;2.17;;
15142;SDS011;7672;50.834;6.286;2022-07-29T01:32:31;9.53;;;2.40;;
15142;SDS011;7672;50.834;6.286;2022-07-29T01:35:03;5.80;;;2.50;;
15142;SDS011;7672;50.834;6.286;2022-07-29T01:40:08;3.93;;;2.07;;
15142;SDS011;7672;50.834;6.286;2022-07-29T01:42:45;6.43;;;2.00;;
15142;SDS011;7672;50.834;6.286;2022-07-29T01:48:23;3.37;;;2.20;;
15142;SDS011;7672;50.834;6.286;2022-07-29T01:50:58;5.43;;;2.00;;
15142;SDS011;7672;50.834;6.286;2022-07-29T01:53:35;4.37;;;2.00;;
15142;SDS011;7672;50.834;6.286;2022-07-29T01:56:13;5.43;;;2.20;;
15142;SDS011;7672;50.834;6.286;2022-07-29T01:58:45;3.73;;;1.83;;
15142;SDS011;7672;50.834;6.286;2022-07-29T02:01:13;6.57;;;2.07;;
15142;SDS011;7672;50.834;6.286;2022-07-29T02:03:45;5.63;;;2.10;;
15142;SDS011;7672;50.834;6.286;2022-07-29T02:06:15;2.83;;;1.80;;
15142;SDS011;7672;50.834;6.286;2022-07-29T02:08:46;5.10;;;2.37;;
15142;SDS011;7672;50.834;6.286;2022-07-29T02:11:15;8.67;;;1.97;;
15142;SDS011;7672;50.834;6.286;2022-07-29T02:13:43;4.20;;;2.00;;
15142;SDS011;7672;50.834;6.286;2022-07-29T02:16:11;2.80;;;1.90;;
15142;SDS011;7672;50.834;6.286;2022-07-29T02:18:40;10.63;;;2.10;;
15142;SDS011;7672;50.834;6.286;2022-07-29T02:21:08;7.10;;;2.10;;
15142;SDS011;7672;50.834;6.286;2022-07-29T02:23:41;5.93;;;2.37;;
15142;SDS011;7672;50.834;6.286;2022-07-29T02:26:17;6.57;;;2.30;;
15142;SDS011;7672;50.834;6.286;2022-07-29T02:28:47;10.80;;;2.60;;
15142;SDS011;7672;50.834;6.286;2022-07-29T02:31:16;6.53;;;2.63;;
15142;SDS011;7672;50.834;6.286;2022-07-29T02:33:47;5.77;;;1.93;;
15142;SDS011;7672;50.834;6.286;2022-07-29T02:36:15;5.63;;;2.20;;
15142;SDS011;7672;50.834;6.286;2022-07-29T02:38:43;3.97;;;2.17;;
15142;SDS011;7672;50.834;6.286;2022-07-29T02:41:20;3.57;;;2.03;;
15142;SDS011;7672;50.834;6.286;2022-07-29T02:43:57;5.97;;;2.43;;
15142;SDS011;7672;50.834;6.286;2022-07-29T02:46:33;7.33;;;2.27;;
15142;SDS011;7672;50.834;6.286;2022-07-29T02:51:49;5.23;;;2.37;;
15142;SDS011;7672;50.834;6.286;2022-07-29T02:54:22;6.07;;;2.13;;
15142;SDS011;7672;50.834;6.286;2022-07-29T02:57:05;3.50;;;1.97;;
15142;SDS011;7672;50.834;6.286;2022-07-29T02:59:47;6.23;;;2.10;;
15142;SDS011;7672;50.834;6.286;2022-07-29T03:02:18;6.93;;;2.23;;
15142;SDS011;7672;50.834;6.286;2022-07-29T03:04:45;4.10;;;1.97;;
15142;SDS011;7672;50.834;6.286;2022-07-29T03:07:15;6.27;;;2.13;;
15142;SDS011;7672;50.834;6.286;2022-07-29T03:09:45;5.83;;;2.13;;
15142;SDS011;7672;50.834;6.286;2022-07-29T03:12:26;4.87;;;2.17;;
15142;SDS011;7672;50.834;6.286;2022-07-29T03:14:55;5.47;;;2.10;;
15142;SDS011;7672;50.834;6.286;2022-07-29T03:17:22;8.10;;;1.77;;
15142;SDS011;7672;50.834;6.286;2022-07-29T03:19:50;5.20;;;1.80;;
15142;SDS011;7672;50.834;6.286;2022-07-29T03:22:17;3.50;;;1.60;;
15142;SDS011;7672;50.834;6.286;2022-07-29T03:24:44;3.57;;;1.80;;
15142;SDS011;7672;50.834;6.286;2022-07-29T03:27:12;5.27;;;2.10;;
15142;SDS011;7672;50.834;6.286;2022-07-29T03:29:39;4.57;;;1.90;;
15142;SDS011;7672;50.834;6.286;2022-07-29T03:32:11;5.17;;;2.03;;
15142;SDS011;7672;50.834;6.286;2022-07-29T03:34:39;5.80;;;1.90;;
15142;SDS011;7672;50.834;6.286;2022-07-29T03:37:06;5.53;;;2.20;;
15142;SDS011;7672;50.834;6.286;2022-07-29T03:39:35;3.73;;;1.73;;
15142;SDS011;7672;50.834;6.286;2022-07-29T03:42:07;5.03;;;2.00;;
15142;SDS011;7672;50.834;6.286;2022-07-29T03:44:38;7.07;;;2.03;;
15142;SDS011;7672;50.834;6.286;2022-07-29T03:47:09;4.43;;;1.80;;
15142;SDS011;7672;50.834;6.286;2022-07-29T03:49:41;3.43;;;1.70;;
15142;SDS011;7672;50.834;6.286;2022-07-29T03:52:13;4.13;;;1.80;;
15142;SDS011;7672;50.834;6.286;2022-07-29T03:54:40;5.07;;;2.20;;
15142;SDS011;7672;50.834;6.286;2022-07-29T03:57:07;4.77;;;1.87;;
15142;SDS011;7672;50.834;6.286;2022-07-29T03:59:37;3.33;;;1.90;;
15142;SDS011;7672;50.834;6.286;2022-07-29T04:02:06;6.33;;;2.20;;
15142;SDS011;7672;50.834;6.286;2022-07-29T04:04:37;4.07;;;2.20;;
15142;SDS011;7672;50.834;6.286;2022-07-29T04:07:04;5.87;;;1.63;;
15142;SDS011;7672;50.834;6.286;2022-07-29T04:09:32;8.83;;;2.30;;
15142;SDS011;7672;50.834;6.286;2022-07-29T04:11:59;6.40;;;2.27;;
15142;SDS011;7672;50.834;6.286;2022-07-29T04:14:28;4.17;;;1.63;;
15142;SDS011;7672;50.834;6.286;2022-07-29T04:16:58;10.87;;;1.90;;
15142;SDS011;7672;50.834;6.286;2022-07-29T04:19:26;3.40;;;2.03;;
15142;SDS011;7672;50.834;6.286;2022-07-29T04:21:52;3.70;;;1.63;;
15142;SDS011;7672;50.834;6.286;2022-07-29T04:24:19;3.40;;;2.13;;
15142;SDS011;7672;50.834;6.286;2022-07-29T04:26:46;5.17;;;2.63;;
15142;SDS011;7672;50.834;6.286;2022-07-29T04:29:14;4.10;;;1.90;;
15142;SDS011;7672;50.834;6.286;2022-07-29T04:31:41;5.23;;;2.37;;
15142;SDS011;7672;50.834;6.286;2022-07-29T04:34:09;6.53;;;2.40;;
15142;SDS011;7672;50.834;6.286;2022-07-29T04:36:37;3.03;;;1.90;;
15142;SDS011;7672;50.834;6.286;2022-07-29T04:39:04;4.93;;;1.87;;
15142;SDS011;7672;50.834;6.286;2022-07-29T04:41:31;4.53;;;2.10;;
15142;SDS011;7672;50.834;6.286;2022-07-29T04:43:59;7.33;;;2.20;;
15142;SDS011;7672;50.834;6.286;2022-07-29T04:46:32;3.13;;;2.10;;
15142;SDS011;7672;50.834;6.286;2022-07-29T04:49:00;4.60;;;2.80;;
15142;SDS011;7672;50.834;6.286;2022-07-29T04:51:27;3.70;;;2.00;;
15142;SDS011;7672;50.834;6.286;2022-07-29T04:53:53;3.27;;;2.20;;
15142;SDS011;7672;50.834;6.286;2022-07-29T04:56:20;3.87;;;1.90;;
15142;SDS011;7672;50.834;6.286;2022-07-29T04:58:47;13.93;;;2.43;;
15142;SDS011;7672;50.834;6.286;2022-07-29T05:01:14;4.83;;;3.03;;
15142;SDS011;7672;50.834;6.286;2022-07-29T05:03:41;14.03;;;3.27;;
15142;SDS011;7672;50.834;6.286;2022-07-29T05:06:08;8.00;;;2.87;;
15142;SDS011;7672;50.834;6.286;2022-07-29T05:08:36;9.07;;;3.13;;
15142;SDS011;7672;50.834;6.286;2022-07-29T05:11:06;15.93;;;4.83;;
15142;SDS011;7672;50.834;6.286;2022-07-29T05:13:38;41.20;;;9.47;;
15142;SDS011;7672;50.834;6.286;2022-07-29T05:16:26;20.50;;;5.70;;
15142;SDS011;7672;50.834;6.286;2022-07-29T05:19:32;12.67;;;4.50;;
15142;SDS011;7672;50.834;6.286;2022-07-29T05:22:04;9.00;;;3.77;;
15142;SDS011;7672;50.834;6.286;2022-07-29T05:24:31;13.00;;;5.20;;
15142;SDS011;7672;50.834;6.286;2022-07-29T05:26:58;9.10;;;3.30;;
15142;SDS011;7672;50.834;6.286;2022-07-29T05:29:25;8.97;;;4.00;;
15142;SDS011;7672;50.834;6.286;2022-07-29T05:32:10;7.80;;;4.20;;
15142;SDS011;7672;50.834;6.286;2022-07-29T05:34:38;9.60;;;4.03;;
15142;SDS011;7672;50.834;6.286;2022-07-29T05:37:16;9.97;;;3.47;;
15142;SDS011;7672;50.834;6.286;2022-07-29T05:39:47;5.77;;;3.43;;
15142;SDS011;7672;50.834;6.286;2022-07-29T05:42:22;8.80;;;3.73;;
15142;SDS011;7672;50.834;6.286;2022-07-29T05:44:50;9.33;;;3.57;;
15142;SDS011;7672;50.834;6.286;2022-07-29T05:47:18;9.97;;;3.67;;
15142;SDS011;7672;50.834;6.286;2022-07-29T05:49:44;11.10;;;4.40;;
15142;SDS011;7672;50.834;6.286;2022-07-29T05:52:12;11.50;;;4.53;;
15142;SDS011;7672;50.834;6.286;2022-07-29T05:54:41;12.10;;;4.23;;
15142;SDS011;7672;50.834;6.286;2022-07-29T05:57:14;15.33;;;4.50;;
15142;SDS011;7672;50.834;6.286;2022-07-29T05:59:49;9.97;;;4.40;;
15142;SDS011;7672;50.834;6.286;2022-07-29T06:02:17;8.00;;;4.53;;
15142;SDS011;7672;50.834;6.286;2022-07-29T06:04:44;15.07;;;4.30;;
15142;SDS011;7672;50.834;6.286;2022-07-29T06:07:11;12.93;;;4.40;;
15142;SDS011;7672;50.834;6.286;2022-07-29T06:09:38;10.13;;;4.07;;
15142;SDS011;7672;50.834;6.286;2022-07-29T06:12:05;9.07;;;4.07;;
15142;SDS011;7672;50.834;6.286;2022-07-29T06:14:32;10.00;;;4.40;;
15142;SDS011;7672;50.834;6.286;2022-07-29T06:16:59;12.90;;;6.10;;
15142;SDS011;7672;50.834;6.286;2022-07-29T06:19:25;17.07;;;6.50;;
15142;SDS011;7672;50.834;6.286;2022-07-29T06:21:52;7.47;;;4.63;;
15142;SDS011;7672;50.834;6.286;2022-07-29T06:24:19;10.00;;;5.00;;
15142;SDS011;7672;50.834;6.286;2022-07-29T06:26:46;12.87;;;4.10;;
15142;SDS011;7672;50.834;6.286;2022-07-29T06:29:13;12.70;;;3.83;;
15142;SDS011;7672;50.834;6.286;2022-07-29T06:31:40;11.67;;;4.10;;
15142;SDS011;7672;50.834;6.286;2022-07-29T06:34:07;10.37;;;4.30;;
15142;SDS011;7672;50.834;6.286;2022-07-29T06:36:34;10.53;;;3.73;;
15142;SDS011;7672;50.834;6.286;2022-07-29T06:39:08;7.03;;;4.30;;
15142;SDS011;7672;50.834;6.286;2022-07-29T06:41:37;6.60;;;3.90;;
15142;SDS011;7672;50.834;6.286;2022-07-29T06:44:04;5.03;;;3.60;;
15142;SDS011;7672;50.834;6.286;2022-07-29T06:46:31;8.53;;;3.73;;
15142;SDS011;7672;50.834;6.286;2022-07-29T06:48:58;6.57;;;3.53;;
15142;SDS011;7672;50.834;6.286;2022-07-29T06:51:27;6.37;;;3.93;;
15142;SDS011;7672;50.834;6.286;2022-07-29T06:53:54;5.33;;;3.50;;
15142;SDS011;7672;50.834;6.286;2022-07-29T06:56:31;12.80;;;3.93;;
15142;SDS011;7672;50.834;6.286;2022-07-29T06:59:05;6.70;;;3.83;;
15142;SDS011;7672;50.834;6.286;2022-07-29T07:01:36;8.87;;;4.20;;
15142;SDS011;7672;50.834;6.286;2022-07-29T07:04:05;5.13;;;3.90;;
15142;SDS011;7672;50.834;6.286;2022-07-29T07:06:34;11.23;;;3.80;;
15142;SDS011;7672;50.834;6.286;2022-07-29T07:09:02;6.73;;;4.13;;
15142;SDS011;7672;50.834;6.286;2022-07-29T07:11:29;5.77;;;3.47;;
15142;SDS011;7672;50.834;6.286;2022-07-29T07:13:56;9.93;;;4.10;;
15142;SDS011;7672;50.834;6.286;2022-07-29T07:16:29;7.23;;;4.20;;
15142;SDS011;7672;50.834;6.286;2022-07-29T07:18:57;8.20;;;3.70;;
15142;SDS011;7672;50.834;6.286;2022-07-29T07:21:24;6.47;;;4.07;;
15142;SDS011;7672;50.834;6.286;2022-07-29T07:23:51;9.00;;;3.90;;
15142;SDS011;7672;50.834;6.286;2022-07-29T07:26:17;9.17;;;4.43;;
15142;SDS011;7672;50.834;6.286;2022-07-29T07:28:44;5.70;;;4.47;;
15142;SDS011;7672;50.834;6.286;2022-07-29T07:31:11;5.33;;;4.17;;
15142;SDS011;7672;50.834;6.286;2022-07-29T07:33:38;7.50;;;3.87;;
15142;SDS011;7672;50.834;6.286;2022-07-29T07:36:05;9.53;;;4.47;;
15142;SDS011;7672;50.834;6.286;2022-07-29T07:38:32;9.20;;;4.43;;
15142;SDS011;7672;50.834;6.286;2022-07-29T07:40:58;9.23;;;4.67;;
15142;SDS011;7672;50.834;6.286;2022-07-29T07:43:26;9.50;;;4.27;;
15142;SDS011;7672;50.834;6.286;2022-07-29T07:45:53;9.20;;;4.20;;
15142;SDS011;7672;50.834;6.286;2022-07-29T07:48:20;7.67;;;3.97;;
15142;SDS011;7672;50.834;6.286;2022-07-29T07:50:47;8.40;;;3.93;;
15142;SDS011;7672;50.834;6.286;2022-07-29T07:53:15;6.20;;;4.30;;
15142;SDS011;7672;50.834;6.286;2022-07-29T07:55:43;12.32;;;4.07;;
15142;SDS011;7672;50.834;6.286;2022-07-29T07:58:30;6.28;;;3.97;;
15142;SDS011;7672;50.834;6.286;2022-07-29T08:00:57;6.07;;;5.10;;
15142;SDS011;7672;50.834;6.286;2022-07-29T08:03:24;7.00;;;4.57;;
15142;SDS011;7672;50.834;6.286;2022-07-29T08:05:51;7.45;;;4.70;;
15142;SDS011;7672;50.834;6.286;2022-07-29T08:08:18;8.05;;;4.70;;
15142;SDS011;7672;50.834;6.286;2022-07-29T08:10:51;9.25;;;5.30;;
15142;SDS011;7672;50.834;6.286;2022-07-29T08:13:23;8.32;;;5.03;;
15142;SDS011;7672;50.834;6.286;2022-07-29T08:15:56;10.55;;;5.18;;
15142;SDS011;7672;50.834;6.286;2022-07-29T08:18:27;6.53;;;4.30;;
15142;SDS011;7672;50.834;6.286;2022-07-29T08:20:56;8.70;;;4.55;;
15142;SDS011;7672;50.834;6.286;2022-07-29T08:23:24;7.53;;;4.47;;
15142;SDS011;7672;50.834;6.286;2022-07-29T08:26:12;11.77;;;4.40;;
15142;SDS011;7672;50.834;6.286;2022-07-29T08:28:43;6.25;;;4.75;;
15142;SDS011;7672;50.834;6.286;2022-07-29T08:31:14;7.03;;;4.97;;
15142;SDS011;7672;50.834;6.286;2022-07-29T08:33:42;7.28;;;4.63;;
15142;SDS011;7672;50.834;6.286;2022-07-29T08:36:10;5.10;;;4.60;;
15142;SDS011;7672;50.834;6.286;2022-07-29T08:38:39;9.13;;;5.03;;
15142;SDS011;7672;50.834;6.286;2022-07-29T08:41:06;6.75;;;4.38;;
15142;SDS011;7672;50.834;6.286;2022-07-29T08:43:34;5.72;;;4.60;;
15142;SDS011;7672;50.834;6.286;2022-07-29T08:46:03;9.20;;;4.00;;
15142;SDS011;7672;50.834;6.286;2022-07-29T08:48:30;9.07;;;4.20;;
15142;SDS011;7672;50.834;6.286;2022-07-29T08:50:58;8.07;;;4.43;;
15142;SDS011;7672;50.834;6.286;2022-07-29T08:53:27;5.97;;;3.80;;
15142;SDS011;7672;50.834;6.286;2022-07-29T08:55:55;4.30;;;3.40;;
15142;SDS011;7672;50.834;6.286;2022-07-29T08:58:23;6.68;;;3.63;;
15142;SDS011;7672;50.834;6.286;2022-07-29T09:00:53;7.18;;;3.50;;
15142;SDS011;7672;50.834;6.286;2022-07-29T09:03:23;8.07;;;3.78;;
15142;SDS011;7672;50.834;6.286;2022-07-29T09:05:56;5.78;;;3.85;;
15142;SDS011;7672;50.834;6.286;2022-07-29T09:08:24;12.07;;;4.15;;
15142;SDS011;7672;50.834;6.286;2022-07-29T09:10:52;9.55;;;3.97;;
15142;SDS011;7672;50.834;6.286;2022-07-29T09:13:19;7.13;;;3.88;;
15142;SDS011;7672;50.834;6.286;2022-07-29T09:15:46;8.98;;;3.80;;
15142;SDS011;7672;50.834;6.286;2022-07-29T09:18:32;7.30;;;3.55;;
15142;SDS011;7672;50.834;6.286;2022-07-29T09:21:11;8.00;;;3.63;;
15142;SDS011;7672;50.834;6.286;2022-07-29T09:24:00;9.02;;;3.88;;
15142;SDS011;7672;50.834;6.286;2022-07-29T09:26:34;6.10;;;3.83;;
15142;SDS011;7672;50.834;6.286;2022-07-29T09:31:44;6.13;;;3.25;;
15142;SDS011;7672;50.834;6.286;2022-07-29T09:34:15;5.22;;;3.53;;
15142;SDS011;7672;50.834;6.286;2022-07-29T09:36:50;8.65;;;3.60;;
15142;SDS011;7672;50.834;6.286;2022-07-29T09:39:27;6.05;;;3.45;;
15142;SDS011;7672;50.834;6.286;2022-07-29T09:42:11;6.13;;;3.72;;
15142;SDS011;7672;50.834;6.286;2022-07-29T09:44:48;6.18;;;3.75;;
15142;SDS011;7672;50.834;6.286;2022-07-29T09:47:17;8.27;;;4.20;;
15142;SDS011;7672;50.834;6.286;2022-07-29T09:49:57;9.73;;;4.57;;
15142;SDS011;7672;50.834;6.286;2022-07-29T09:52:26;8.00;;;3.70;;
15142;SDS011;7672;50.834;6.286;2022-07-29T09:55:04;11.95;;;4.80;;
15142;SDS011;7672;50.834;6.286;2022-07-29T09:57:33;9.65;;;5.22;;
15142;SDS011;7672;50.834;6.286;2022-07-29T10:01:27;9.40;;;5.38;;
15142;SDS011;7672;50.834;6.286;2022-07-29T10:03:55;10.77;;;4.80;;
15142;SDS011;7672;50.834;6.286;2022-07-29T10:06:22;11.02;;;5.38;;
15142;SDS011;7672;50.834;6.286;2022-07-29T10:08:52;14.23;;;5.55;;
15142;SDS011;7672;50.834;6.286;2022-07-29T10:11:20;7.95;;;5.35;;
15142;SDS011;7672;50.834;6.286;2022-07-29T10:13:48;7.00;;;4.88;;
15142;SDS011;7672;50.834;6.286;2022-07-29T10:16:15;8.63;;;5.45;;
15142;SDS011;7672;50.834;6.286;2022-07-29T10:18:44;7.90;;;5.22;;
15142;SDS011;7672;50.834;6.286;2022-07-29T10:21:17;6.82;;;4.78;;
15142;SDS011;7672;50.834;6.286;2022-07-29T10:24:01;9.98;;;4.90;;
15142;SDS011;7672;50.834;6.286;2022-07-29T10:26:29;6.38;;;4.60;;
15142;SDS011;7672;50.834;6.286;2022-07-29T10:28:57;6.53;;;4.57;;
15142;SDS011;7672;50.834;6.286;2022-07-29T10:31:26;5.68;;;4.40;;
15142;SDS011;7672;50.834;6.286;2022-07-29T10:37:31;4.72;;;4.25;;
15142;SDS011;7672;50.834;6.286;2022-07-29T10:43:24;8.80;;;3.70;;
15142;SDS011;7672;50.834;6.286;2022-07-29T10:45:57;9.18;;;4.20;;
15142;SDS011;7672;50.834;6.286;2022-07-29T10:48:26;5.40;;;3.97;;
15142;SDS011;7672;50.834;6.286;2022-07-29T10:50:55;6.50;;;3.88;;
15142;SDS011;7672;50.834;6.286;2022-07-29T11:01:49;4.55;;;3.30;;
15142;SDS011;7672;50.834;6.286;2022-07-29T11:07:10;5.20;;;3.33;;
15142;SDS011;7672;50.834;6.286;2022-07-29T11:09:40;3.90;;;3.05;;
15142;SDS011;7672;50.834;6.286;2022-07-29T11:15:23;5.28;;;3.47;;
15142;SDS011;7672;50.834;6.286;2022-07-29T11:23:26;5.05;;;3.55;;
15142;SDS011;7672;50.834;6.286;2022-07-29T11:28:54;6.45;;;4.38;;
15142;SDS011;7672;50.834;6.286;2022-07-29T11:31:32;7.13;;;4.35;;
15142;SDS011;7672;50.834;6.286;2022-07-29T11:34:24;6.32;;;3.72;;
15142;SDS011;7672;50.834;6.286;2022-07-29T11:45:03;5.72;;;3.63;;
15142;SDS011;7672;50.834;6.286;2022-07-29T11:48:05;6.00;;;3.88;;
15142;SDS011;7672;50.834;6.286;2022-07-29T11:50:57;5.03;;;3.30;;
15142;SDS011;7672;50.834;6.286;2022-07-29T11:53:25;4.78;;;2.88;;
15142;SDS011;7672;50.834;6.286;2022-07-29T11:55:57;4.93;;;3.08;;
15142;SDS011;7672;50.834;6.286;2022-07-29T11:58:28;4.13;;;3.00;;
15142;SDS011;7672;50.834;6.286;2022-07-29T12:00:55;5.25;;;3.30;;
15142;SDS011;7672;50.834;6.286;2022-07-29T12:03:30;4.43;;;2.97;;
15142;SDS011;7672;50.834;6.286;2022-07-29T12:06:01;4.95;;;3.38;;
15142;SDS011;7672;50.834;6.286;2022-07-29T12:08:45;4.35;;;3.25;;
15142;SDS011;7672;50.834;6.286;2022-07-29T12:11:18;3.30;;;2.90;;
15142;SDS011;7672;50.834;6.286;2022-07-29T12:13:48;4.20;;;3.00;;
15142;SDS011;7672;50.834;6.286;2022-07-29T12:16:18;7.65;;;3.50;;
15142;SDS011;7672;50.834;6.286;2022-07-29T12:19:00;3.90;;;2.92;;
15142;SDS011;7672;50.834;6.286;2022-07-29T12:21:42;4.50;;;3.10;;
15142;SDS011;7672;50.834;6.286;2022-07-29T12:24:21;5.03;;;3.17;;
15142;SDS011;7672;50.834;6.286;2022-07-29T12:26:56;2.97;;;2.67;;
15142;SDS011;7672;50.834;6.286;2022-07-29T12:29:27;4.00;;;2.70;;
15142;SDS011;7672;50.834;6.286;2022-07-29T12:32:01;4.82;;;3.10;;
15142;SDS011;7672;50.834;6.286;2022-07-29T12:34:31;4.00;;;2.85;;
15142;SDS011;7672;50.834;6.286;2022-07-29T12:36:59;3.67;;;3.05;;
15142;SDS011;7672;50.834;6.286;2022-07-29T12:39:27;3.28;;;2.85;;
15142;SDS011;7672;50.834;6.286;2022-07-29T12:41:54;4.03;;;3.45;;
15142;SDS011;7672;50.834;6.286;2022-07-29T12:44:46;5.30;;;3.58;;
15142;SDS011;7672;50.834;6.286;2022-07-29T12:47:16;5.63;;;4.40;;
15142;SDS011;7672;50.834;6.286;2022-07-29T12:50:19;6.38;;;3.80;;
15142;SDS011;7672;50.834;6.286;2022-07-29T12:52:51;5.82;;;3.72;;
15142;SDS011;7672;50.834;6.286;2022-07-29T12:55:40;7.00;;;4.15;;
15142;SDS011;7672;50.834;6.286;2022-07-29T12:58:07;5.55;;;4.18;;
15142;SDS011;7672;50.834;6.286;2022-07-29T13:00:34;4.95;;;3.72;;
15142;SDS011;7672;50.834;6.286;2022-07-29T13:03:02;9.13;;;5.03;;
15142;SDS011;7672;50.834;6.286;2022-07-29T13:05:42;12.75;;;4.50;;
15142;SDS011;7672;50.834;6.286;2022-07-29T13:08:15;5.18;;;3.90;;
15142;SDS011;7672;50.834;6.286;2022-07-29T13:10:48;5.55;;;4.30;;
15142;SDS011;7672;50.834;6.286;2022-07-29T13:13:15;6.38;;;4.50;;
15142;SDS011;7672;50.834;6.286;2022-07-29T13:15:42;5.68;;;4.20;;
15142;SDS011;7672;50.834;6.286;2022-07-29T13:21:12;5.38;;;4.38;;
15142;SDS011;7672;50.834;6.286;2022-07-29T13:23:43;4.88;;;3.78;;
15142;SDS011;7672;50.834;6.286;2022-07-29T13:26:10;5.93;;;3.47;;
15142;SDS011;7672;50.834;6.286;2022-07-29T13:28:38;4.95;;;3.80;;
15142;SDS011;7672;50.834;6.286;2022-07-29T13:31:05;4.43;;;3.38;;
15142;SDS011;7672;50.834;6.286;2022-07-29T13:33:32;6.83;;;3.93;;
15142;SDS011;7672;50.834;6.286;2022-07-29T13:35:58;10.23;;;3.60;;
15142;SDS011;7672;50.834;6.286;2022-07-29T13:38:28;3.80;;;3.40;;
15142;SDS011;7672;50.834;6.286;2022-07-29T13:40:56;6.25;;;3.65;;
15142;SDS011;7672;50.834;6.286;2022-07-29T13:43:23;10.15;;;3.92;;
15142;SDS011;7672;50.834;6.286;2022-07-29T13:45:50;4.80;;;3.60;;
15142;SDS011;7672;50.834;6.286;2022-07-29T13:48:18;7.13;;;3.50;;
15142;SDS011;7672;50.834;6.286;2022-07-29T13:50:44;4.00;;;3.60;;
15142;SDS011;7672;50.834;6.286;2022-07-29T13:53:12;5.68;;;3.35;;
15142;SDS011;7672;50.834;6.286;2022-07-29T13:55:43;7.22;;;3.40;;
15142;SDS011;7672;50.834;6.286;2022-07-29T13:58:10;5.22;;;3.25;;
15142;SDS011;7672;50.834;6.286;2022-07-29T14:00:37;5.95;;;3.47;;
15142;SDS011;7672;50.834;6.286;2022-07-29T14:03:03;3.53;;;3.28;;
15142;SDS011;7672;50.834;6.286;2022-07-29T14:05:30;5.28;;;3.28;;
15142;SDS011;7672;50.834;6.286;2022-07-29T14:07:57;4.88;;;3.40;;
15142;SDS011;7672;50.834;6.286;2022-07-29T14:10:24;3.42;;;3.20;;
15142;SDS011;7672;50.834;6.286;2022-07-29T14:12:52;5.82;;;3.80;;
15142;SDS011;7672;50.834;6.286;2022-07-29T14:15:19;3.95;;;3.33;;
15142;SDS011;7672;50.834;6.286;2022-07-29T14:17:46;4.78;;;3.25;;
15142;SDS011;7672;50.834;6.286;2022-07-29T14:20:13;4.95;;;3.17;;
15142;SDS011;7672;50.834;6.286;2022-07-29T14:22:42;3.60;;;3.30;;
15142;SDS011;7672;50.834;6.286;2022-07-29T14:25:10;4.43;;;3.17;;
15142;SDS011;7672;50.834;6.286;2022-07-29T14:27:40;3.03;;;2.83;;
15142;SDS011;7672;50.834;6.286;2022-07-29T14:30:08;4.93;;;2.95;;
15142;SDS011;7672;50.834;6.286;2022-07-29T14:32:36;2.97;;;2.78;;
15142;SDS011;7672;50.834;6.286;2022-07-29T14:35:03;5.13;;;3.42;;
15142;SDS011;7672;50.834;6.286;2022-07-29T14:37:31;4.57;;;3.08;;
15142;SDS011;7672;50.834;6.286;2022-07-29T14:40:05;3.85;;;3.00;;
15142;SDS011;7672;50.834;6.286;2022-07-29T14:42:34;3.72;;;3.08;;
15142;SDS011;7672;50.834;6.286;2022-07-29T14:45:02;3.58;;;3.20;;
15142;SDS011;7672;50.834;6.286;2022-07-29T14:47:31;5.40;;;3.17;;
15142;SDS011;7672;50.834;6.286;2022-07-29T14:49:58;4.28;;;3.05;;
15142;SDS011;7672;50.834;6.286;2022-07-29T14:52:25;5.40;;;3.10;;
15142;SDS011;7672;50.834;6.286;2022-07-29T14:54:52;3.92;;;2.88;;
15142;SDS011;7672;50.834;6.286;2022-07-29T14:57:19;3.70;;;2.88;;
15142;SDS011;7672;50.834;6.286;2022-07-29T14:59:46;4.20;;;2.95;;
15142;SDS011;7672;50.834;6.286;2022-07-29T15:02:13;3.85;;;2.80;;
15142;SDS011;7672;50.834;6.286;2022-07-29T15:04:40;3.53;;;2.75;;
15142;SDS011;7672;50.834;6.286;2022-07-29T15:07:06;3.90;;;3.30;;
15142;SDS011;7672;50.834;6.286;2022-07-29T15:09:34;3.35;;;2.88;;
15142;SDS011;7672;50.834;6.286;2022-07-29T15:12:05;4.22;;;2.80;;
15142;SDS011;7672;50.834;6.286;2022-07-29T15:14:34;3.33;;;2.90;;
15142;SDS011;7672;50.834;6.286;2022-07-29T15:17:00;3.10;;;2.80;;
15142;SDS011;7672;50.834;6.286;2022-07-29T15:19:29;4.70;;;3.22;;
15142;SDS011;7672;50.834;6.286;2022-07-29T15:21:56;3.30;;;3.00;;
15142;SDS011;7672;50.834;6.286;2022-07-29T15:24:25;3.55;;;2.88;;
15142;SDS011;7672;50.834;6.286;2022-07-29T15:26:52;4.40;;;2.72;;
15142;SDS011;7672;50.834;6.286;2022-07-29T15:29:19;4.90;;;2.72;;
15142;SDS011;7672;50.834;6.286;2022-07-29T15:31:47;2.90;;;2.70;;
15142;SDS011;7672;50.834;6.286;2022-07-29T15:34:14;5.10;;;3.40;;
15142;SDS011;7672;50.834;6.286;2022-07-29T15:36:41;5.00;;;3.22;;
15142;SDS011;7672;50.834;6.286;2022-07-29T15:39:18;3.50;;;3.20;;
15142;SDS011;7672;50.834;6.286;2022-07-29T15:41:47;3.42;;;3.15;;
15142;SDS011;7672;50.834;6.286;2022-07-29T15:44:14;3.65;;;3.33;;
15142;SDS011;7672;50.834;6.286;2022-07-29T15:46:41;5.97;;;3.35;;
15142;SDS011;7672;50.834;6.286;2022-07-29T15:49:27;4.95;;;3.35;;
15142;SDS011;7672;50.834;6.286;2022-07-29T15:52:14;4.40;;;4.00;;
15142;SDS011;7672;50.834;6.286;2022-07-29T15:54:51;6.57;;;3.72;;
15142;SDS011;7672;50.834;6.286;2022-07-29T15:57:22;3.95;;;3.50;;
15142;SDS011;7672;50.834;6.286;2022-07-29T15:59:50;4.22;;;3.85;;
15142;SDS011;7672;50.834;6.286;2022-07-29T16:02:17;4.15;;;3.78;;
15142;SDS011;7672;50.834;6.286;2022-07-29T16:04:44;4.40;;;4.00;;
15142;SDS011;7672;50.834;6.286;2022-07-29T16:07:12;4.88;;;4.40;;
15142;SDS011;7672;50.834;6.286;2022-07-29T16:09:40;5.43;;;4.10;;
15142;SDS011;7672;50.834;6.286;2022-07-29T16:12:08;5.03;;;4.30;;
15142;SDS011;7672;50.834;6.286;2022-07-29T16:14:40;4.93;;;4.10;;
15142;SDS011;7672;50.834;6.286;2022-07-29T16:17:10;4.43;;;4.00;;
15142;SDS011;7672;50.834;6.286;2022-07-29T16:19:40;6.90;;;6.20;;
15142;SDS011;7672;50.834;6.286;2022-07-29T16:22:10;7.15;;;6.55;;